createdAt,value
2017-08-21T00:01:51.628Z,101753.80
2017-08-21T00:04:20.061Z,101755.52
2017-08-21T00:06:48.504Z,101755.50
2017-08-21T00:09:16.984Z,101753.36
2017-08-21T00:11:45.469Z,101752.06
2017-08-21T00:14:13.942Z,101755.07
2017-08-21T00:16:42.370Z,101754.63
2017-08-21T00:19:10.908Z,101755.95
2017-08-21T00:21:39.336Z,101750.38
2017-08-21T00:24:07.797Z,101756.83
2017-08-21T00:26:36.229Z,101753.78
2017-08-21T00:29:05.522Z,101756.76
2017-08-21T00:31:34.750Z,101753.78
2017-08-21T00:34:03.235Z,101756.83
2017-08-21T00:36:31.663Z,101753.86
2017-08-21T00:39:00.108Z,101759.06
2017-08-21T00:41:28.590Z,101755.23
2017-08-21T00:43:57.053Z,101754.88
2017-08-21T00:46:25.548Z,101750.11
2017-08-21T00:48:54.023Z,101748.83
2017-08-21T00:51:22.452Z,101755.81
2017-08-21T00:53:50.987Z,101758.11
2017-08-21T00:56:19.487Z,101752.94
2017-08-21T00:58:48.066Z,101755.16
2017-08-21T01:01:16.550Z,101759.14
2017-08-21T01:03:45.039Z,101753.58
2017-08-21T01:06:13.501Z,101762.77
2017-08-21T01:08:41.979Z,101760.69
2017-08-21T01:11:10.472Z,101763.30
2017-08-21T01:13:38.958Z,101763.30
2017-08-21T01:16:07.421Z,101759.41
2017-08-21T01:18:35.839Z,101761.56
2017-08-21T01:21:04.296Z,101760.69
2017-08-21T01:23:32.736Z,101759.76
2017-08-21T01:26:01.972Z,101755.81
2017-08-21T01:28:30.417Z,101753.19
2017-08-21T01:30:59.662Z,101756.89
2017-08-21T01:33:28.136Z,101755.58
2017-08-21T01:35:56.616Z,101754.28
2017-08-21T01:38:25.110Z,101755.60
2017-08-21T01:40:53.596Z,101748.30
2017-08-21T01:43:22.075Z,101747.02
2017-08-21T01:45:50.523Z,101748.36
2017-08-21T01:48:19.743Z,101744.98
2017-08-21T01:50:48.200Z,101748.52
2017-08-21T01:53:17.423Z,101750.30
2017-08-21T01:55:46.018Z,101748.59
2017-08-21T01:58:14.497Z,101751.23
2017-08-21T02:00:42.982Z,101752.53
2017-08-21T02:03:11.431Z,101748.28
2017-08-21T02:05:40.663Z,101750.02
2017-08-21T02:08:09.125Z,101752.63
2017-08-21T02:10:37.611Z,101746.13
2017-08-21T02:13:06.099Z,101750.94
2017-08-21T02:15:34.579Z,101749.22
2017-08-21T02:18:03.074Z,101748.34
2017-08-21T02:20:31.521Z,101748.36
2017-08-21T02:23:00.844Z,101751.80
2017-08-21T02:25:29.339Z,101755.70
2017-08-21T02:27:57.801Z,101749.23
2017-08-21T02:30:26.237Z,101740.58
2017-08-21T02:32:54.706Z,101737.98
2017-08-21T02:35:23.155Z,101733.22
2017-08-21T02:37:51.635Z,101736.24
2017-08-21T02:40:20.073Z,101738.27
2017-08-21T02:42:48.606Z,101737.69
2017-08-21T02:45:17.053Z,101745.33
2017-08-21T02:47:46.276Z,101737.42
2017-08-21T02:50:14.769Z,101735.60
2017-08-21T02:52:43.215Z,101735.53
2017-08-21T02:55:12.422Z,101731.13
2017-08-21T02:57:40.923Z,101734.59
2017-08-21T03:00:09.403Z,101735.39
2017-08-21T03:02:37.852Z,101736.62
2017-08-21T03:05:07.083Z,101733.96
2017-08-21T03:07:35.522Z,101731.41
2017-08-21T03:10:03.964Z,101734.73
2017-08-21T03:12:32.405Z,101736.81
2017-08-21T03:15:01.743Z,101728.55
2017-08-21T03:17:30.211Z,101731.94
2017-08-21T03:19:58.694Z,101732.36
2017-08-21T03:22:27.295Z,101729.30
2017-08-21T03:24:55.773Z,101734.45
2017-08-21T03:27:24.262Z,101741.00
2017-08-21T03:29:52.723Z,101728.95
2017-08-21T03:32:21.208Z,101726.29
2017-08-21T03:34:49.655Z,101721.96
2017-08-21T03:37:18.172Z,101727.15
2017-08-21T03:39:46.629Z,101729.73
2017-08-21T03:42:15.855Z,101731.98
2017-08-21T03:44:44.313Z,101738.34
2017-08-21T03:47:13.513Z,101735.73
2017-08-21T03:49:42.728Z,101736.09
2017-08-21T03:52:11.156Z,101738.17
2017-08-21T03:54:39.707Z,101741.23
2017-08-21T03:57:08.154Z,101736.44
2017-08-21T03:59:37.490Z,101737.70
2017-08-21T04:02:05.959Z,101747.63
2017-08-21T04:04:34.453Z,101743.67
2017-08-21T04:07:02.896Z,101749.27
2017-08-21T04:09:32.107Z,101747.46
2017-08-21T04:12:00.545Z,101749.13
2017-08-21T04:14:28.991Z,101742.56
2017-08-21T04:16:57.411Z,101745.10
2017-08-21T04:19:25.853Z,101745.96
2017-08-21T04:21:54.332Z,101751.07
2017-08-21T04:24:22.756Z,101745.08
2017-08-21T04:26:51.300Z,101752.53
2017-08-21T04:29:19.772Z,101745.19
2017-08-21T04:31:48.219Z,101743.14
2017-08-21T04:34:17.415Z,101744.03
2017-08-21T04:36:45.930Z,101743.23
2017-08-21T04:39:14.428Z,101744.55
2017-08-21T04:41:42.905Z,101735.50
2017-08-21T04:44:11.384Z,101740.55
2017-08-21T04:46:39.836Z,101738.75
2017-08-21T04:49:09.064Z,101734.84
2017-08-21T04:51:37.553Z,101731.31
2017-08-21T04:54:06.027Z,101732.25
2017-08-21T04:56:34.485Z,101729.95
2017-08-21T04:59:03.712Z,101728.61
2017-08-21T05:01:32.155Z,101735.45
2017-08-21T05:04:01.347Z,101734.91
2017-08-21T05:06:29.808Z,101732.20
2017-08-21T05:08:58.245Z,101737.41
2017-08-21T05:11:26.736Z,101733.45
2017-08-21T05:13:55.221Z,101728.50
2017-08-21T05:16:23.706Z,101731.42
2017-08-21T05:18:52.190Z,101732.55
2017-08-21T05:21:20.656Z,101735.11
2017-08-21T05:23:49.147Z,101728.97
2017-08-21T05:26:17.638Z,101722.02
2017-08-21T05:28:46.120Z,101724.84
2017-08-21T05:31:14.551Z,101719.11
2017-08-21T05:33:43.800Z,101717.98
2017-08-21T05:36:12.268Z,101716.27
2017-08-21T05:38:40.715Z,101721.34
2017-08-21T05:41:09.943Z,101721.33
2017-08-21T05:43:38.443Z,101723.16
2017-08-21T05:46:06.916Z,101718.97
2017-08-21T05:48:35.412Z,101711.91
2017-08-21T05:51:03.843Z,101718.06
2017-08-21T05:53:33.090Z,101726.47
2017-08-21T05:56:01.515Z,101723.16
2017-08-21T05:58:30.048Z,101726.84
2017-08-21T06:00:58.512Z,101726.00
2017-08-21T06:03:27.013Z,101724.59
2017-08-21T06:05:55.453Z,101721.95
2017-08-21T06:08:24.787Z,101720.95
2017-08-21T06:10:53.281Z,101725.33
2017-08-21T06:13:21.715Z,101726.97
2017-08-21T06:15:50.931Z,101722.20
2017-08-21T06:18:20.151Z,101728.07
2017-08-21T06:20:48.608Z,101726.89
2017-08-21T06:23:17.805Z,101728.02
2017-08-21T06:25:47.135Z,101727.58
2017-08-21T06:28:15.582Z,101729.44
2017-08-21T06:30:44.811Z,101731.97
2017-08-21T06:33:13.296Z,101728.41
2017-08-21T06:35:41.733Z,101734.75
2017-08-21T06:38:10.162Z,101727.42
2017-08-21T06:40:38.613Z,101724.59
2017-08-21T06:43:07.121Z,101722.55
2017-08-21T06:45:35.607Z,101726.73
2017-08-21T06:48:04.036Z,101733.17
2017-08-21T06:50:32.492Z,101733.05
2017-08-21T06:53:00.925Z,101731.66
2017-08-21T06:55:29.438Z,101735.11
2017-08-21T06:57:57.913Z,101735.65
2017-08-21T07:00:26.491Z,101732.52
2017-08-21T07:02:54.929Z,101729.50
2017-08-21T07:05:23.461Z,101731.52
2017-08-21T07:07:52.025Z,101739.04
2017-08-21T07:10:20.524Z,101732.65
2017-08-21T07:12:49.003Z,101731.42
2017-08-21T07:15:17.488Z,101731.20
2017-08-21T07:17:45.981Z,101734.83
2017-08-21T07:20:14.416Z,101729.79
2017-08-21T07:22:43.645Z,101724.55
2017-08-21T07:25:12.145Z,101725.09
2017-08-21T07:27:40.627Z,101727.45
2017-08-21T07:30:09.072Z,101721.31
2017-08-21T07:32:38.400Z,101722.59
2017-08-21T07:35:06.822Z,101719.22
2017-08-21T07:37:35.271Z,101716.78
2017-08-21T07:40:03.708Z,101712.78
2017-08-21T07:42:32.954Z,101728.98
2017-08-21T07:45:01.394Z,101721.88
2017-08-21T07:47:30.739Z,101725.45
2017-08-21T07:49:59.219Z,101730.50
2017-08-21T07:52:27.673Z,101732.09
2017-08-21T07:54:56.119Z,101731.47
2017-08-21T07:57:24.558Z,101735.34
2017-08-21T07:59:53.021Z,101728.75
2017-08-21T08:02:21.439Z,101732.17
2017-08-21T08:04:49.884Z,101728.72
2017-08-21T08:07:18.371Z,101733.57
2017-08-21T08:09:46.832Z,101734.03
2017-08-21T08:12:16.056Z,101739.50
2017-08-21T08:14:44.540Z,101742.22
2017-08-21T08:17:13.030Z,101744.06
2017-08-21T08:19:41.495Z,101756.30
2017-08-21T08:22:09.921Z,101738.95
2017-08-21T08:24:38.463Z,101744.95
2017-08-21T08:27:06.887Z,101743.89
2017-08-21T08:29:35.429Z,101740.38
2017-08-21T08:32:03.918Z,101737.06
2017-08-21T08:34:32.373Z,101745.03
2017-08-21T08:37:00.867Z,101737.73
2017-08-21T08:39:29.374Z,101735.91
2017-08-21T08:41:57.850Z,101734.38
2017-08-21T08:44:26.279Z,101732.89
2017-08-21T08:46:54.809Z,101724.64
2017-08-21T08:49:23.279Z,101731.50
2017-08-21T08:51:51.778Z,101729.09
2017-08-21T08:54:20.240Z,101732.38
2017-08-21T08:56:48.733Z,101727.72
2017-08-21T08:59:17.169Z,101725.95
2017-08-21T09:01:45.705Z,101725.58
2017-08-21T09:04:14.193Z,101729.89
2017-08-21T09:06:42.660Z,101725.82
2017-08-21T09:09:11.154Z,101731.40
2017-08-21T09:11:39.589Z,101723.84
2017-08-21T09:14:08.823Z,101724.59
2017-08-21T09:16:38.232Z,101724.81
2017-08-21T09:19:06.669Z,101719.45
2017-08-21T09:21:35.892Z,101714.22
2017-08-21T09:24:04.406Z,101714.77
2017-08-21T09:26:32.852Z,101706.39
2017-08-21T09:29:01.366Z,101703.67
2017-08-21T09:31:29.831Z,101696.96
2017-08-21T09:33:58.255Z,101702.20
2017-08-21T09:36:26.719Z,101713.17
2017-08-21T09:38:55.189Z,101701.45
2017-08-21T09:41:23.624Z,101703.25
2017-08-21T09:43:52.849Z,101707.41
2017-08-21T09:46:21.351Z,101716.19
2017-08-21T09:48:49.803Z,101718.48
2017-08-21T09:51:18.299Z,101707.87
2017-08-21T09:53:46.788Z,101706.05
2017-08-21T09:56:15.278Z,101708.16
2017-08-21T09:58:43.729Z,101713.27
2017-08-21T10:01:12.933Z,101711.78
2017-08-21T10:03:41.443Z,101718.57
2017-08-21T10:06:09.871Z,101715.37
2017-08-21T10:08:38.401Z,101712.77
2017-08-21T10:11:06.885Z,101708.67
2017-08-21T10:13:35.375Z,101715.81
2017-08-21T10:16:36.000Z,101710.14
2017-08-21T10:19:04.481Z,101704.88
2017-08-21T10:21:32.904Z,101707.16
2017-08-21T10:24:01.358Z,101705.73
2017-08-21T10:26:29.832Z,101702.62
2017-08-21T10:28:58.295Z,101690.04
2017-08-21T10:31:26.725Z,101703.98
2017-08-21T10:33:55.273Z,101701.42
2017-08-21T10:36:23.709Z,101710.34
2017-08-21T10:38:52.241Z,101703.82
2017-08-21T10:41:20.685Z,101704.05
2017-08-21T10:43:49.187Z,101694.32
2017-08-21T10:46:17.675Z,101696.54
2017-08-21T10:48:46.165Z,101691.20
2017-08-21T10:51:14.601Z,101707.77
2017-08-21T10:53:43.124Z,101693.55
2017-08-21T10:56:11.599Z,101686.30
2017-08-21T10:58:40.043Z,101689.93
2017-08-21T11:01:08.581Z,101694.01
2017-08-21T11:03:37.048Z,101695.31
2017-08-21T11:06:05.532Z,101697.81
2017-08-21T11:08:33.989Z,101694.64
2017-08-21T11:11:02.507Z,101695.48
2017-08-21T11:13:30.957Z,101697.58
2017-08-21T11:15:59.401Z,101700.05
2017-08-21T11:18:27.949Z,101679.88
2017-08-21T11:20:56.434Z,101696.55
2017-08-21T11:23:24.908Z,101689.05
2017-08-21T11:25:53.395Z,101693.09
2017-08-21T11:28:21.888Z,101683.16
2017-08-21T11:30:50.345Z,101681.31
2017-08-21T11:33:18.850Z,101671.51
2017-08-21T11:35:47.294Z,101673.34
2017-08-21T11:38:16.515Z,101682.73
2017-08-21T11:40:44.955Z,101683.55
2017-08-21T11:43:13.383Z,101675.61
2017-08-21T11:45:41.846Z,101668.83
2017-08-21T11:48:10.848Z,101678.80
2017-08-21T11:50:39.341Z,101678.80
2017-08-21T11:53:07.767Z,101674.14
2017-08-21T11:55:36.229Z,101678.41
2017-08-21T11:58:04.651Z,101682.73
2017-08-21T12:00:33.109Z,101689.75
2017-08-21T12:03:01.532Z,101683.98
2017-08-21T12:05:30.025Z,101672.06
2017-08-21T12:07:58.504Z,101673.41
2017-08-21T12:10:26.992Z,101673.58
2017-08-21T12:12:55.420Z,101678.66
2017-08-21T12:15:23.943Z,101679.45
2017-08-21T12:17:52.377Z,101670.92
2017-08-21T12:20:20.912Z,101669.60
2017-08-21T12:22:49.345Z,101674.96
2017-08-21T12:25:17.885Z,101683.30
2017-08-21T12:27:46.360Z,101693.28
2017-08-21T12:30:14.817Z,101686.30
2017-08-21T12:32:43.328Z,101678.94
2017-08-21T12:35:11.818Z,101680.82
2017-08-21T12:37:40.288Z,101682.27
2017-08-21T12:40:08.785Z,101683.22
2017-08-21T12:42:37.225Z,101688.04
2017-08-21T12:45:05.663Z,101683.53
2017-08-21T12:47:34.108Z,101679.16
2017-08-21T12:50:02.526Z,101678.59
2017-08-21T12:52:31.085Z,101678.45
2017-08-21T12:54:59.551Z,101680.17
2017-08-21T12:57:28.013Z,101674.87
2017-08-21T12:59:56.533Z,101677.11
2017-08-21T13:02:24.992Z,101667.16
2017-08-21T13:04:53.499Z,101671.91
2017-08-21T13:07:21.972Z,101681.42
2017-08-21T13:09:50.461Z,101670.56
2017-08-21T13:12:18.913Z,101671.69
2017-08-21T13:14:47.434Z,101680.38
2017-08-21T13:17:15.888Z,101691.24
2017-08-21T13:19:44.395Z,101676.47
2017-08-21T13:22:12.855Z,101671.23
2017-08-21T13:24:41.343Z,101665.04
2017-08-21T13:27:09.801Z,101676.02
2017-08-21T13:29:38.224Z,101671.56
2017-08-21T13:32:06.673Z,101667.57
2017-08-21T13:34:35.159Z,101667.41
2017-08-21T13:37:03.614Z,101673.34
2017-08-21T13:39:32.045Z,101670.36
2017-08-21T13:42:00.785Z,101674.36
2017-08-21T13:44:29.313Z,101664.94
2017-08-21T13:46:57.755Z,101674.44
2017-08-21T13:49:26.265Z,101675.02
2017-08-21T13:51:54.687Z,101671.03
2017-08-21T13:54:23.136Z,101678.21
2017-08-21T13:56:51.608Z,101680.59
2017-08-21T13:59:20.065Z,101682.56
2017-08-21T14:01:48.577Z,101690.50
2017-08-21T14:04:17.024Z,101697.22
2017-08-21T14:06:45.462Z,101707.52
2017-08-21T14:09:13.992Z,101695.14
2017-08-21T14:11:42.495Z,101704.27
2017-08-21T14:14:10.976Z,101702.89
2017-08-21T14:16:39.476Z,101702.97
2017-08-21T14:19:07.919Z,101702.31
2017-08-21T14:21:36.427Z,101705.51
2017-08-21T14:24:04.912Z,101705.41
2017-08-21T14:26:33.401Z,101702.66
2017-08-21T14:29:01.873Z,101709.80
2017-08-21T14:31:30.296Z,101704.98
2017-08-21T14:33:58.850Z,101697.44
2017-08-21T14:36:27.316Z,101709.45
2017-08-21T14:38:55.813Z,101703.38
2017-08-21T14:41:24.279Z,101701.37
2017-08-21T14:43:52.771Z,101703.55
2017-08-21T14:46:21.242Z,101703.94
2017-08-21T14:48:49.663Z,101705.73
2017-08-21T14:51:18.125Z,101704.84
2017-08-21T14:53:46.595Z,101698.32
2017-08-21T14:56:15.035Z,101700.38
2017-08-21T14:58:43.556Z,101712.00
2017-08-21T15:01:12.047Z,101720.67
2017-08-21T15:03:40.484Z,101704.67
2017-08-21T15:06:09.004Z,101702.67
2017-08-21T15:08:37.498Z,101708.92
2017-08-21T15:11:05.939Z,101706.88
2017-08-21T15:13:34.363Z,101705.23
2017-08-21T15:16:02.832Z,101710.78
2017-08-21T15:18:31.307Z,101718.11
2017-08-21T15:20:59.801Z,101708.52
2017-08-21T15:23:28.233Z,101716.47
2017-08-21T15:25:56.765Z,101716.41
2017-08-21T15:28:25.246Z,101716.72
2017-08-21T15:30:53.699Z,101711.22
2017-08-21T15:33:22.195Z,101708.66
2017-08-21T15:35:50.649Z,101706.27
2017-08-21T15:38:19.884Z,101716.47
2017-08-21T15:40:48.344Z,101723.00
2017-08-21T15:43:16.851Z,101714.21
2017-08-21T15:45:45.327Z,101714.11
2017-08-21T15:48:13.751Z,101707.34
2017-08-21T15:50:42.228Z,101725.30
2017-08-21T15:53:10.672Z,101721.89
2017-08-21T15:55:39.152Z,101718.77
2017-08-21T15:58:07.645Z,101718.50
2017-08-21T16:00:36.071Z,101717.55
2017-08-21T16:03:04.600Z,101731.87
2017-08-21T16:05:33.090Z,101728.81
2017-08-21T16:08:01.563Z,101722.72
2017-08-21T16:10:30.049Z,101724.70
2017-08-21T16:12:58.538Z,101732.53
2017-08-21T16:15:26.967Z,101727.22
2017-08-21T16:17:55.501Z,101722.94
2017-08-21T16:20:23.945Z,101730.50
2017-08-21T16:22:52.452Z,101734.63
2017-08-21T16:25:20.946Z,101737.25
2017-08-21T16:27:49.392Z,101725.23
2017-08-21T16:30:17.808Z,101732.03
2017-08-21T16:32:46.295Z,101741.13
2017-08-21T16:35:14.724Z,101735.48
2017-08-21T16:37:43.253Z,101741.20
2017-08-21T16:40:11.735Z,101733.62
2017-08-21T16:42:40.190Z,101745.19
2017-08-21T16:45:08.692Z,101749.38
2017-08-21T16:47:37.154Z,101749.20
2017-08-21T16:50:05.593Z,101751.64
2017-08-21T16:52:34.043Z,101749.80
2017-08-21T16:55:02.483Z,101751.41
2017-08-21T16:57:30.908Z,101756.08
2017-08-21T16:59:59.376Z,101749.66
2017-08-21T17:02:27.851Z,101756.03
2017-08-21T17:04:56.351Z,101751.33
2017-08-21T17:07:24.834Z,101752.92
2017-08-21T17:09:53.313Z,101756.16
2017-08-21T17:12:21.745Z,101758.72
2017-08-21T17:14:50.265Z,101750.19
2017-08-21T17:17:18.716Z,101758.20
2017-08-21T17:19:47.173Z,101758.89
2017-08-21T17:22:15.707Z,101764.34
2017-08-21T17:24:44.187Z,101765.61
2017-08-21T17:27:12.681Z,101768.91
2017-08-21T17:29:41.119Z,101766.94
2017-08-21T17:32:09.544Z,101770.53
2017-08-21T17:34:37.987Z,101774.33
2017-08-21T17:37:06.503Z,101771.69
2017-08-21T17:39:35.001Z,101779.97
2017-08-21T17:42:03.468Z,101791.80
2017-08-21T17:44:32.014Z,101788.29
2017-08-21T17:47:00.445Z,101788.39
2017-08-21T17:49:28.905Z,101792.73
2017-08-21T17:51:57.406Z,101797.66
2017-08-21T17:54:25.875Z,101802.01
2017-08-21T17:56:54.334Z,101798.52
2017-08-21T17:59:22.852Z,101802.95
2017-08-21T18:01:51.291Z,101807.11
2017-08-21T18:04:19.784Z,101802.08
2017-08-21T18:06:48.299Z,101799.59
2017-08-21T18:09:16.781Z,101804.77
2017-08-21T18:11:45.261Z,101808.05
2017-08-21T18:14:13.691Z,101813.18
2017-08-21T18:16:42.153Z,101816.70
2017-08-21T18:19:10.584Z,101820.39
2017-08-21T18:21:39.080Z,101821.55
2017-08-21T18:24:07.504Z,101828.21
2017-08-21T18:26:36.046Z,101821.75
2017-08-21T18:29:04.529Z,101823.61
2017-08-21T18:31:32.983Z,101830.56
2017-08-21T18:34:01.421Z,101832.91
2017-08-21T18:36:29.960Z,101834.85
2017-08-21T18:38:58.457Z,101839.42
2017-08-21T18:41:26.928Z,101844.00
2017-08-21T18:43:55.421Z,101841.30
2017-08-21T18:46:23.866Z,101843.09
2017-08-21T18:48:52.385Z,101843.52
2017-08-21T18:51:20.871Z,101846.87
2017-08-21T18:53:49.336Z,101851.92
2017-08-21T18:56:17.833Z,101854.31
2017-08-21T18:58:46.310Z,101854.02
2017-08-21T19:01:14.788Z,101853.34
2017-08-21T19:03:43.267Z,101855.36
2017-08-21T19:06:11.757Z,101859.98
2017-08-21T19:08:40.234Z,101861.59
2017-08-21T19:11:08.664Z,101863.13
2017-08-21T19:13:37.129Z,101863.73
2017-08-21T19:16:05.553Z,101869.55
2017-08-21T19:18:34.006Z,101874.03
2017-08-21T19:21:02.432Z,101870.55
2017-08-21T19:23:30.919Z,101878.61
2017-08-21T19:25:59.414Z,101880.95
2017-08-21T19:28:27.894Z,101879.58
2017-08-21T19:30:56.378Z,101875.98
2017-08-21T19:33:24.836Z,101879.95
2017-08-21T19:35:54.037Z,101870.97
2017-08-21T19:38:22.488Z,101872.03
2017-08-21T19:40:51.012Z,101880.91
2017-08-21T19:43:19.495Z,101880.13
2017-08-21T19:45:47.933Z,101881.56
2017-08-21T19:48:17.175Z,101882.79
2017-08-21T19:50:45.613Z,101879.44
2017-08-21T19:53:14.068Z,101882.22
2017-08-21T19:55:42.505Z,101887.97
2017-08-21T19:58:11.000Z,101891.92
2017-08-21T20:00:39.459Z,101892.03
2017-08-21T20:03:07.888Z,101894.83
2017-08-21T20:05:36.342Z,101894.41
2017-08-21T20:08:04.842Z,101895.36
2017-08-21T20:10:33.318Z,101896.84
2017-08-21T20:13:01.797Z,101901.27
2017-08-21T20:15:30.279Z,101901.37
2017-08-21T20:17:58.761Z,101897.20
2017-08-21T20:20:27.204Z,101892.08
2017-08-21T20:22:55.727Z,101889.53
2017-08-21T20:25:24.177Z,101889.12
2017-08-21T20:27:52.621Z,101883.47
2017-08-21T20:30:21.172Z,101878.72
2017-08-21T20:32:49.658Z,101873.93
2017-08-21T20:35:18.118Z,101883.00
2017-08-21T20:37:46.605Z,101878.56
2017-08-21T20:40:15.083Z,101879.77
2017-08-21T20:42:43.586Z,101873.59
2017-08-21T20:45:12.051Z,101872.22
2017-08-21T20:47:40.546Z,101872.61
2017-08-21T20:50:08.992Z,101872.88
2017-08-21T20:52:37.509Z,101878.00
2017-08-21T20:55:06.000Z,101879.64
2017-08-21T20:57:34.432Z,101878.24
2017-08-21T21:00:02.954Z,101880.34
2017-08-21T21:02:31.381Z,101878.14
2017-08-21T21:04:59.918Z,101877.73
2017-08-21T21:07:28.362Z,101885.52
2017-08-21T21:09:56.817Z,101881.13
2017-08-21T21:12:25.366Z,101879.72
2017-08-21T21:14:53.817Z,101887.17
2017-08-21T21:17:22.311Z,101889.02
2017-08-21T21:19:50.769Z,101887.30
2017-08-21T21:22:19.294Z,101890.06
2017-08-21T21:24:47.779Z,101896.22
2017-08-21T21:27:16.244Z,101895.18
2017-08-21T21:29:44.727Z,101892.78
2017-08-21T21:32:13.211Z,101894.70
2017-08-21T21:34:41.691Z,101894.48
2017-08-21T21:37:10.189Z,101898.92
2017-08-21T21:39:38.611Z,101901.70
2017-08-21T21:42:07.147Z,101900.08
2017-08-21T21:44:35.629Z,101901.61
2017-08-21T21:47:04.083Z,101897.79
2017-08-21T21:49:32.519Z,101898.89
2017-08-21T21:52:01.059Z,101898.93
2017-08-21T21:54:29.580Z,101892.22
2017-08-21T21:56:58.131Z,101897.94
2017-08-21T21:59:26.620Z,101898.03
2017-08-21T22:01:55.063Z,101895.95
2017-08-21T22:04:23.584Z,101895.68
2017-08-21T22:06:52.064Z,101902.33
2017-08-21T22:09:20.486Z,101903.27
2017-08-21T22:11:49.033Z,101895.48
2017-08-21T22:14:17.513Z,101893.47
2017-08-21T22:16:46.005Z,101897.02
2017-08-21T22:19:14.468Z,101891.39
2017-08-21T22:21:42.961Z,101886.17
2017-08-21T22:24:11.423Z,101887.20
2017-08-21T22:26:39.921Z,101891.19
2017-08-21T22:29:08.395Z,101889.10
2017-08-21T22:31:36.872Z,101886.20
2017-08-21T22:34:05.363Z,101885.41
2017-08-21T22:36:33.843Z,101882.88
2017-08-21T22:39:02.336Z,101883.41
2017-08-21T22:41:30.768Z,101880.00
2017-08-21T22:43:59.299Z,101872.25
2017-08-21T22:46:27.772Z,101878.38
2017-08-21T22:48:56.216Z,101875.84
2017-08-21T22:51:24.731Z,101873.33
2017-08-21T22:53:53.216Z,101869.87
2017-08-21T22:56:21.635Z,101872.62
2017-08-21T22:58:50.094Z,101877.89
2017-08-21T23:04:10.047Z,101873.19
2017-08-21T23:06:38.568Z,101870.19
2017-08-21T23:09:07.048Z,101874.56
2017-08-21T23:11:35.472Z,101869.88
2017-08-21T23:14:04.016Z,101874.71
2017-08-21T23:16:32.502Z,101865.28
2017-08-21T23:19:00.971Z,101869.66
2017-08-21T23:21:29.420Z,101867.92
2017-08-21T23:23:57.849Z,101868.37
2017-08-21T23:26:26.324Z,101867.19
2017-08-21T23:28:54.809Z,101868.50
2017-08-21T23:31:23.294Z,101871.59
2017-08-21T23:33:51.764Z,101874.28
2017-08-21T23:36:20.207Z,101868.27
2017-08-21T23:38:48.624Z,101864.08
2017-08-21T23:41:17.067Z,101861.05
2017-08-21T23:43:45.599Z,101857.17
2017-08-21T23:46:14.067Z,101858.15
2017-08-21T23:48:42.487Z,101855.08
2017-08-21T23:51:10.926Z,101859.47
2017-08-21T23:53:39.408Z,101862.55
2017-08-21T23:56:07.871Z,101857.44
2017-08-21T23:58:37.083Z,101854.55
